This is the latest recevied weather packets stored in our database for station/object CT2IRJ-11. If no packets are shown the sender has not sent any weather packets the latest 10 day(s).
| Time | Temp. | Humidity | Pressure | Rain* | Wind** | Luminosity | Snow |
|---|---|---|---|---|---|---|---|
| 1777987711 | 20.56° C | 54% | 1015.9 hPa | 0 mm | - | 368 W/m² | - |
| 1777987411 | 21.11° C | 53% | 1016.3 hPa | 0 mm | - | 665 W/m² | - |
| 1777987113 | 21.11° C | 53% | 1016.3 hPa | 0 mm | - | 439 W/m² | - |
| 1777986810 | 20.56° C | 53% | 1016.6 hPa | 0 mm | - | 812 W/m² | - |
| 1777986512 | 20.56° C | 54% | 1016.6 hPa | 0 mm | - | 494 W/m² | - |
| 1777986209 | 21.11° C | 53% | 1016.6 hPa | 0 mm | - | 255 W/m² | - |
| 1777985910 | 19.44° C | 57% | 1016.6 hPa | 0 mm | - | 924 W/m² | - |
| 1777985609 | 19.44° C | 56% | 1016.6 hPa | 0 mm | - | 272 W/m² | - |
| 1777985309 | 18.33° C | 61% | 1016.6 hPa | 0 mm | - | 233 W/m² | - |
| 1777985010 | 18.33° C | 60% | 1016.6 hPa | 0 mm | - | 138 W/m² | - |
| 1777984709 | 18.89° C | 58% | 1016.6 hPa | 0 mm | - | 98 W/m² | - |
| 1777984410 | 19.44° C | 58% | 1016.6 hPa | 0 mm | - | 157 W/m² | - |
| 1777984111 | 19.44° C | 59% | 1016.6 hPa | 0 mm | - | 195 W/m² | - |
| 1777983810 | 19.44° C | 55% | 1016.6 hPa | 0 mm | - | 220 W/m² | - |
| 1777983509 | 18.89° C | 56% | 1016.6 hPa | 0 mm | - | 295 W/m² | - |
| 1777983210 | 19.44° C | 56% | 1016.6 hPa | 0 mm | - | 240 W/m² | - |
| 1777982909 | 18.89° C | 55% | 1016.9 hPa | 0 mm | - | 249 W/m² | - |
| 1777982610 | 20° C | 54% | 1016.9 hPa | 0 mm | - | 276 W/m² | - |
| 1777982309 | 19.44° C | 54% | 1016.9 hPa | 0 mm | - | 342 W/m² | - |
| 1777982010 | 19.44° C | 55% | 1016.9 hPa | 0 mm | - | 235 W/m² | - |
| 1777981710 | 19.44° C | 55% | 1016.9 hPa | 0 mm | - | 306 W/m² | - |
| 1777981410 | 19.44° C | 55% | 1016.9 hPa | 0 mm | - | 232 W/m² | - |
| 1777981110 | 20.56° C | 52% | 1016.9 hPa | 0 mm | - | 187 W/m² | - |
| 1777980810 | 21.11° C | 50% | 1016.9 hPa | 0 mm | - | 329 W/m² | - |
| 1777980509 | 21.67° C | 48% | 1016.9 hPa | 0 mm | - | 535 W/m² | - |
* Rain latest hour (hover to see other rain measurements)
** Current wind speed in m/s (hover to see current wind gust speed)